sensor_id;sensor_type;location;lat;lon;timestamp;P1;durP1;ratioP1;P2;durP2;ratioP2
40675;SDS011;26359;48.750;9.314;2022-12-18T00:01:21;110.22;;;43.70;;
40675;SDS011;26359;48.750;9.314;2022-12-18T00:03:48;111.53;;;44.97;;
40675;SDS011;26359;48.750;9.314;2022-12-18T00:06:15;115.00;;;44.35;;
40675;SDS011;26359;48.750;9.314;2022-12-18T00:08:42;115.45;;;46.25;;
40675;SDS011;26359;48.750;9.314;2022-12-18T00:11:10;119.65;;;46.35;;
40675;SDS011;26359;48.750;9.314;2022-12-18T00:13:38;118.90;;;47.25;;
40675;SDS011;26359;48.750;9.314;2022-12-18T00:16:05;110.47;;;42.65;;
40675;SDS011;26359;48.750;9.314;2022-12-18T00:18:32;124.97;;;43.60;;
40675;SDS011;26359;48.750;9.314;2022-12-18T00:20:59;135.30;;;52.05;;
40675;SDS011;26359;48.750;9.314;2022-12-18T00:23:26;119.30;;;46.22;;
40675;SDS011;26359;48.750;9.314;2022-12-18T00:25:52;139.50;;;45.40;;
40675;SDS011;26359;48.750;9.314;2022-12-18T00:28:18;159.68;;;44.92;;
40675;SDS011;26359;48.750;9.314;2022-12-18T00:30:43;115.90;;;45.35;;
40675;SDS011;26359;48.750;9.314;2022-12-18T00:33:09;108.80;;;43.75;;
40675;SDS011;26359;48.750;9.314;2022-12-18T00:35:35;140.38;;;46.08;;
40675;SDS011;26359;48.750;9.314;2022-12-18T00:38:00;111.97;;;44.80;;
40675;SDS011;26359;48.750;9.314;2022-12-18T00:40:26;127.28;;;47.40;;
40675;SDS011;26359;48.750;9.314;2022-12-18T00:42:51;114.80;;;46.00;;
40675;SDS011;26359;48.750;9.314;2022-12-18T00:45:26;117.53;;;44.85;;
40675;SDS011;26359;48.750;9.314;2022-12-18T00:47:53;116.78;;;44.22;;
40675;SDS011;26359;48.750;9.314;2022-12-18T00:50:20;111.72;;;43.17;;
40675;SDS011;26359;48.750;9.314;2022-12-18T00:52:46;113.03;;;44.42;;
40675;SDS011;26359;48.750;9.314;2022-12-18T00:55:13;112.90;;;41.50;;
40675;SDS011;26359;48.750;9.314;2022-12-18T00:57:39;114.55;;;45.00;;
40675;SDS011;26359;48.750;9.314;2022-12-18T01:00:06;109.93;;;44.30;;
40675;SDS011;26359;48.750;9.314;2022-12-18T01:02:32;115.82;;;43.85;;
40675;SDS011;26359;48.750;9.314;2022-12-18T01:04:58;115.47;;;45.05;;
40675;SDS011;26359;48.750;9.314;2022-12-18T01:07:23;113.07;;;43.22;;
40675;SDS011;26359;48.750;9.314;2022-12-18T01:09:49;112.05;;;42.42;;
40675;SDS011;26359;48.750;9.314;2022-12-18T01:12:14;114.63;;;44.13;;
40675;SDS011;26359;48.750;9.314;2022-12-18T01:14:40;109.18;;;42.70;;
40675;SDS011;26359;48.750;9.314;2022-12-18T01:17:06;116.53;;;43.33;;
40675;SDS011;26359;48.750;9.314;2022-12-18T01:19:31;112.05;;;43.88;;
40675;SDS011;26359;48.750;9.314;2022-12-18T01:21:57;114.82;;;44.17;;
40675;SDS011;26359;48.750;9.314;2022-12-18T01:24:23;117.13;;;43.15;;
40675;SDS011;26359;48.750;9.314;2022-12-18T01:26:49;108.32;;;42.70;;
40675;SDS011;26359;48.750;9.314;2022-12-18T01:29:14;115.68;;;43.92;;
40675;SDS011;26359;48.750;9.314;2022-12-18T01:31:40;111.60;;;44.05;;
40675;SDS011;26359;48.750;9.314;2022-12-18T01:34:06;113.22;;;43.78;;
40675;SDS011;26359;48.750;9.314;2022-12-18T01:36:32;104.45;;;41.05;;
40675;SDS011;26359;48.750;9.314;2022-12-18T01:39:00;106.47;;;42.83;;
40675;SDS011;26359;48.750;9.314;2022-12-18T01:41:28;113.50;;;43.35;;
40675;SDS011;26359;48.750;9.314;2022-12-18T01:47:21;106.78;;;41.92;;
40675;SDS011;26359;48.750;9.314;2022-12-18T01:50:00;104.90;;;42.03;;
40675;SDS011;26359;48.750;9.314;2022-12-18T01:52:33;113.40;;;43.78;;
40675;SDS011;26359;48.750;9.314;2022-12-18T01:54:59;111.63;;;42.75;;
40675;SDS011;26359;48.750;9.314;2022-12-18T01:57:26;101.45;;;41.78;;
40675;SDS011;26359;48.750;9.314;2022-12-18T01:59:53;108.30;;;40.83;;
40675;SDS011;26359;48.750;9.314;2022-12-18T02:02:25;106.10;;;41.35;;
40675;SDS011;26359;48.750;9.314;2022-12-18T02:04:54;107.55;;;40.17;;
40675;SDS011;26359;48.750;9.314;2022-12-18T02:07:32;107.10;;;42.50;;
40675;SDS011;26359;48.750;9.314;2022-12-18T02:13:06;92.43;;;38.25;;
40675;SDS011;26359;48.750;9.314;2022-12-18T02:15:41;91.53;;;36.88;;
40675;SDS011;26359;48.750;9.314;2022-12-18T02:18:18;84.88;;;35.70;;
40675;SDS011;26359;48.750;9.314;2022-12-18T02:21:07;88.57;;;37.38;;
40675;SDS011;26359;48.750;9.314;2022-12-18T02:23:49;93.05;;;38.03;;
40675;SDS011;26359;48.750;9.314;2022-12-18T02:26:40;88.97;;;37.03;;
40675;SDS011;26359;48.750;9.314;2022-12-18T02:29:29;88.70;;;36.50;;
40675;SDS011;26359;48.750;9.314;2022-12-18T02:32:07;88.65;;;35.75;;
40675;SDS011;26359;48.750;9.314;2022-12-18T02:34:39;91.88;;;37.10;;
40675;SDS011;26359;48.750;9.314;2022-12-18T02:37:07;92.28;;;37.58;;
40675;SDS011;26359;48.750;9.314;2022-12-18T02:39:36;84.15;;;35.35;;
40675;SDS011;26359;48.750;9.314;2022-12-18T02:42:04;89.50;;;36.63;;
40675;SDS011;26359;48.750;9.314;2022-12-18T02:44:33;86.22;;;37.15;;
40675;SDS011;26359;48.750;9.314;2022-12-18T02:47:14;89.18;;;34.80;;
40675;SDS011;26359;48.750;9.314;2022-12-18T02:52:35;84.80;;;34.60;;
40675;SDS011;26359;48.750;9.314;2022-12-18T02:55:10;77.57;;;32.80;;
40675;SDS011;26359;48.750;9.314;2022-12-18T02:57:50;78.22;;;33.55;;
40675;SDS011;26359;48.750;9.314;2022-12-18T03:00:28;83.57;;;33.28;;
40675;SDS011;26359;48.750;9.314;2022-12-18T03:03:04;82.82;;;34.10;;
40675;SDS011;26359;48.750;9.314;2022-12-18T03:08:26;81.63;;;35.00;;
40675;SDS011;26359;48.750;9.314;2022-12-18T03:10:56;78.05;;;34.05;;
40675;SDS011;26359;48.750;9.314;2022-12-18T03:13:33;78.80;;;33.90;;
40675;SDS011;26359;48.750;9.314;2022-12-18T03:16:11;81.60;;;34.47;;
40675;SDS011;26359;48.750;9.314;2022-12-18T03:21:13;89.22;;;34.47;;
40675;SDS011;26359;48.750;9.314;2022-12-18T03:23:45;83.10;;;34.35;;
40675;SDS011;26359;48.750;9.314;2022-12-18T03:26:15;84.82;;;35.30;;
40675;SDS011;26359;48.750;9.314;2022-12-18T03:28:49;81.78;;;34.50;;
40675;SDS011;26359;48.750;9.314;2022-12-18T03:31:16;83.70;;;34.08;;
40675;SDS011;26359;48.750;9.314;2022-12-18T03:33:47;85.30;;;35.20;;
40675;SDS011;26359;48.750;9.314;2022-12-18T03:36:17;81.50;;;34.28;;
40675;SDS011;26359;48.750;9.314;2022-12-18T03:38:43;79.40;;;33.53;;
40675;SDS011;26359;48.750;9.314;2022-12-18T03:41:17;76.82;;;33.42;;
40675;SDS011;26359;48.750;9.314;2022-12-18T03:43:52;77.07;;;32.28;;
40675;SDS011;26359;48.750;9.314;2022-12-18T03:49:02;77.47;;;32.35;;
40675;SDS011;26359;48.750;9.314;2022-12-18T03:51:51;74.05;;;31.33;;
40675;SDS011;26359;48.750;9.314;2022-12-18T03:54:22;76.20;;;32.90;;
40675;SDS011;26359;48.750;9.314;2022-12-18T03:56:49;73.57;;;32.22;;
40675;SDS011;26359;48.750;9.314;2022-12-18T03:59:22;74.45;;;31.42;;
40675;SDS011;26359;48.750;9.314;2022-12-18T04:01:49;72.17;;;32.17;;
40675;SDS011;26359;48.750;9.314;2022-12-18T04:04:18;74.88;;;30.98;;
40675;SDS011;26359;48.750;9.314;2022-12-18T04:06:45;71.93;;;30.13;;
40675;SDS011;26359;48.750;9.314;2022-12-18T04:09:13;73.55;;;31.13;;
40675;SDS011;26359;48.750;9.314;2022-12-18T04:11:40;78.40;;;32.67;;
40675;SDS011;26359;48.750;9.314;2022-12-18T04:14:08;73.03;;;31.58;;
40675;SDS011;26359;48.750;9.314;2022-12-18T04:16:34;80.38;;;34.38;;
40675;SDS011;26359;48.750;9.314;2022-12-18T04:19:00;72.88;;;31.45;;
40675;SDS011;26359;48.750;9.314;2022-12-18T04:21:25;78.63;;;31.40;;
40675;SDS011;26359;48.750;9.314;2022-12-18T04:23:51;74.43;;;31.37;;
40675;SDS011;26359;48.750;9.314;2022-12-18T04:26:17;72.72;;;30.38;;
40675;SDS011;26359;48.750;9.314;2022-12-18T04:28:42;75.57;;;32.45;;
40675;SDS011;26359;48.750;9.314;2022-12-18T04:31:08;74.70;;;32.03;;
40675;SDS011;26359;48.750;9.314;2022-12-18T04:33:33;73.97;;;32.50;;
40675;SDS011;26359;48.750;9.314;2022-12-18T04:35:59;72.67;;;32.50;;
40675;SDS011;26359;48.750;9.314;2022-12-18T04:38:24;80.97;;;31.77;;
40675;SDS011;26359;48.750;9.314;2022-12-18T04:40:50;78.07;;;32.03;;
40675;SDS011;26359;48.750;9.314;2022-12-18T04:43:16;76.33;;;32.40;;
40675;SDS011;26359;48.750;9.314;2022-12-18T04:45:41;82.40;;;31.53;;
40675;SDS011;26359;48.750;9.314;2022-12-18T04:48:07;67.60;;;30.17;;
40675;SDS011;26359;48.750;9.314;2022-12-18T04:50:32;73.50;;;29.90;;
40675;SDS011;26359;48.750;9.314;2022-12-18T04:52:58;69.63;;;30.03;;
40675;SDS011;26359;48.750;9.314;2022-12-18T04:55:23;72.47;;;29.77;;
40675;SDS011;26359;48.750;9.314;2022-12-18T04:57:49;69.47;;;29.73;;
40675;SDS011;26359;48.750;9.314;2022-12-18T05:00:15;75.73;;;31.40;;
40675;SDS011;26359;48.750;9.314;2022-12-18T05:02:40;79.33;;;32.47;;
40675;SDS011;26359;48.750;9.314;2022-12-18T05:05:06;69.83;;;29.87;;
40675;SDS011;26359;48.750;9.314;2022-12-18T05:07:32;69.33;;;32.60;;
40675;SDS011;26359;48.750;9.314;2022-12-18T05:09:58;66.73;;;28.97;;
40675;SDS011;26359;48.750;9.314;2022-12-18T05:12:23;74.40;;;30.07;;
40675;SDS011;26359;48.750;9.314;2022-12-18T05:14:49;60.23;;;29.00;;
40675;SDS011;26359;48.750;9.314;2022-12-18T05:17:14;69.50;;;29.63;;
40675;SDS011;26359;48.750;9.314;2022-12-18T05:19:40;72.70;;;29.27;;
40675;SDS011;26359;48.750;9.314;2022-12-18T05:22:05;69.10;;;30.03;;
40675;SDS011;26359;48.750;9.314;2022-12-18T05:24:32;69.10;;;29.27;;
40675;SDS011;26359;48.750;9.314;2022-12-18T05:26:58;70.17;;;30.17;;
40675;SDS011;26359;48.750;9.314;2022-12-18T05:29:24;67.67;;;29.20;;
40675;SDS011;26359;48.750;9.314;2022-12-18T05:31:50;73.90;;;30.10;;
40675;SDS011;26359;48.750;9.314;2022-12-18T05:34:15;66.23;;;28.87;;
40675;SDS011;26359;48.750;9.314;2022-12-18T05:36:41;68.57;;;28.33;;
40675;SDS011;26359;48.750;9.314;2022-12-18T05:39:06;67.47;;;29.63;;
40675;SDS011;26359;48.750;9.314;2022-12-18T05:41:32;68.77;;;30.13;;
40675;SDS011;26359;48.750;9.314;2022-12-18T05:43:58;70.17;;;30.13;;
40675;SDS011;26359;48.750;9.314;2022-12-18T05:46:24;75.33;;;29.77;;
40675;SDS011;26359;48.750;9.314;2022-12-18T05:48:49;72.50;;;31.10;;
40675;SDS011;26359;48.750;9.314;2022-12-18T05:51:16;69.70;;;30.50;;
40675;SDS011;26359;48.750;9.314;2022-12-18T05:53:44;71.60;;;29.77;;
40675;SDS011;26359;48.750;9.314;2022-12-18T05:56:12;68.70;;;28.73;;
40675;SDS011;26359;48.750;9.314;2022-12-18T05:58:40;71.50;;;28.70;;
40675;SDS011;26359;48.750;9.314;2022-12-18T06:01:11;69.83;;;30.20;;
40675;SDS011;26359;48.750;9.314;2022-12-18T06:03:41;71.63;;;29.97;;
40675;SDS011;26359;48.750;9.314;2022-12-18T06:06:14;77.23;;;31.47;;
40675;SDS011;26359;48.750;9.314;2022-12-18T06:08:41;73.50;;;29.98;;
40675;SDS011;26359;48.750;9.314;2022-12-18T06:11:07;77.30;;;29.57;;
40675;SDS011;26359;48.750;9.314;2022-12-18T06:13:33;68.23;;;29.93;;
40675;SDS011;26359;48.750;9.314;2022-12-18T06:16:01;67.40;;;30.43;;
40675;SDS011;26359;48.750;9.314;2022-12-18T06:18:27;73.40;;;30.50;;
40675;SDS011;26359;48.750;9.314;2022-12-18T06:20:56;70.33;;;29.33;;
40675;SDS011;26359;48.750;9.314;2022-12-18T06:23:23;66.83;;;29.10;;
40675;SDS011;26359;48.750;9.314;2022-12-18T06:25:48;76.43;;;28.50;;
40675;SDS011;26359;48.750;9.314;2022-12-18T06:28:14;68.20;;;30.07;;
40675;SDS011;26359;48.750;9.314;2022-12-18T06:30:43;79.30;;;31.20;;
40675;SDS011;26359;48.750;9.314;2022-12-18T06:33:09;72.37;;;30.77;;
40675;SDS011;26359;48.750;9.314;2022-12-18T06:35:34;68.63;;;31.00;;
40675;SDS011;26359;48.750;9.314;2022-12-18T06:38:00;76.57;;;31.43;;
40675;SDS011;26359;48.750;9.314;2022-12-18T06:40:27;71.67;;;30.77;;
40675;SDS011;26359;48.750;9.314;2022-12-18T06:42:52;75.73;;;32.00;;
40675;SDS011;26359;48.750;9.314;2022-12-18T06:45:18;81.97;;;31.63;;
40675;SDS011;26359;48.750;9.314;2022-12-18T06:47:43;78.40;;;31.07;;
40675;SDS011;26359;48.750;9.314;2022-12-18T06:50:09;75.10;;;30.63;;
40675;SDS011;26359;48.750;9.314;2022-12-18T06:52:34;71.60;;;31.20;;
40675;SDS011;26359;48.750;9.314;2022-12-18T06:55:00;72.67;;;29.87;;
40675;SDS011;26359;48.750;9.314;2022-12-18T06:57:26;72.20;;;31.10;;
40675;SDS011;26359;48.750;9.314;2022-12-18T06:59:51;63.77;;;28.57;;
40675;SDS011;26359;48.750;9.314;2022-12-18T07:02:17;66.07;;;29.53;;
40675;SDS011;26359;48.750;9.314;2022-12-18T07:04:42;71.60;;;30.80;;
40675;SDS011;26359;48.750;9.314;2022-12-18T07:07:08;71.67;;;29.07;;
40675;SDS011;26359;48.750;9.314;2022-12-18T07:09:33;73.47;;;30.17;;
40675;SDS011;26359;48.750;9.314;2022-12-18T07:11:59;73.67;;;29.17;;
40675;SDS011;26359;48.750;9.314;2022-12-18T07:14:24;68.37;;;28.20;;
40675;SDS011;26359;48.750;9.314;2022-12-18T07:16:50;69.90;;;29.63;;
40675;SDS011;26359;48.750;9.314;2022-12-18T07:19:15;78.07;;;28.87;;
40675;SDS011;26359;48.750;9.314;2022-12-18T07:21:41;71.57;;;31.40;;
40675;SDS011;26359;48.750;9.314;2022-12-18T07:24:06;70.20;;;29.40;;
40675;SDS011;26359;48.750;9.314;2022-12-18T07:26:32;71.27;;;28.90;;
40675;SDS011;26359;48.750;9.314;2022-12-18T07:28:58;77.97;;;30.20;;
40675;SDS011;26359;48.750;9.314;2022-12-18T07:31:24;72.37;;;30.03;;
40675;SDS011;26359;48.750;9.314;2022-12-18T07:33:50;73.17;;;30.40;;
40675;SDS011;26359;48.750;9.314;2022-12-18T07:36:16;76.97;;;32.17;;
40675;SDS011;26359;48.750;9.314;2022-12-18T07:38:42;73.47;;;31.27;;
40675;SDS011;26359;48.750;9.314;2022-12-18T07:41:09;71.37;;;29.70;;
40675;SDS011;26359;48.750;9.314;2022-12-18T07:43:36;73.47;;;30.90;;
40675;SDS011;26359;48.750;9.314;2022-12-18T07:46:02;71.60;;;30.77;;
40675;SDS011;26359;48.750;9.314;2022-12-18T07:48:28;70.27;;;30.50;;
40675;SDS011;26359;48.750;9.314;2022-12-18T07:50:57;65.83;;;28.83;;
40675;SDS011;26359;48.750;9.314;2022-12-18T07:53:24;71.83;;;29.97;;
40675;SDS011;26359;48.750;9.314;2022-12-18T07:55:54;62.43;;;30.67;;
40675;SDS011;26359;48.750;9.314;2022-12-18T07:58:22;75.67;;;31.80;;
40675;SDS011;26359;48.750;9.314;2022-12-18T08:00:48;70.87;;;32.40;;
40675;SDS011;26359;48.750;9.314;2022-12-18T08:03:14;75.80;;;31.47;;
40675;SDS011;26359;48.750;9.314;2022-12-18T08:05:40;74.87;;;30.90;;
40675;SDS011;26359;48.750;9.314;2022-12-18T08:08:06;78.53;;;32.30;;
40675;SDS011;26359;48.750;9.314;2022-12-18T08:10:31;76.23;;;31.63;;
40675;SDS011;26359;48.750;9.314;2022-12-18T08:12:57;78.63;;;32.40;;
40675;SDS011;26359;48.750;9.314;2022-12-18T08:15:22;77.63;;;32.67;;
40675;SDS011;26359;48.750;9.314;2022-12-18T08:17:48;79.07;;;33.90;;
40675;SDS011;26359;48.750;9.314;2022-12-18T08:20:13;76.13;;;31.63;;
40675;SDS011;26359;48.750;9.314;2022-12-18T08:22:40;78.40;;;33.67;;
40675;SDS011;26359;48.750;9.314;2022-12-18T08:25:06;73.97;;;31.60;;
40675;SDS011;26359;48.750;9.314;2022-12-18T08:27:32;75.10;;;32.30;;
40675;SDS011;26359;48.750;9.314;2022-12-18T08:29:58;75.83;;;33.77;;
40675;SDS011;26359;48.750;9.314;2022-12-18T08:32:24;71.40;;;32.07;;
40675;SDS011;26359;48.750;9.314;2022-12-18T08:34:50;76.90;;;33.37;;
40675;SDS011;26359;48.750;9.314;2022-12-18T08:37:16;72.07;;;31.33;;
40675;SDS011;26359;48.750;9.314;2022-12-18T08:39:41;73.73;;;32.67;;
40675;SDS011;26359;48.750;9.314;2022-12-18T08:42:07;75.47;;;31.97;;
40675;SDS011;26359;48.750;9.314;2022-12-18T08:44:51;78.90;;;32.97;;
40675;SDS011;26359;48.750;9.314;2022-12-18T08:47:16;82.27;;;34.33;;
40675;SDS011;26359;48.750;9.314;2022-12-18T08:49:42;74.43;;;32.83;;
40675;SDS011;26359;48.750;9.314;2022-12-18T08:52:07;78.67;;;32.60;;
40675;SDS011;26359;48.750;9.314;2022-12-18T08:54:33;73.23;;;33.27;;
40675;SDS011;26359;48.750;9.314;2022-12-18T08:56:59;74.47;;;33.57;;
40675;SDS011;26359;48.750;9.314;2022-12-18T08:59:24;82.30;;;33.13;;
40675;SDS011;26359;48.750;9.314;2022-12-18T09:01:50;76.70;;;33.33;;
40675;SDS011;26359;48.750;9.314;2022-12-18T09:04:19;71.05;;;31.58;;
40675;SDS011;26359;48.750;9.314;2022-12-18T09:06:44;79.05;;;35.22;;
40675;SDS011;26359;48.750;9.314;2022-12-18T09:09:10;74.63;;;32.80;;
40675;SDS011;26359;48.750;9.314;2022-12-18T09:11:36;71.95;;;32.17;;
40675;SDS011;26359;48.750;9.314;2022-12-18T09:14:02;73.22;;;32.60;;
40675;SDS011;26359;48.750;9.314;2022-12-18T09:16:28;75.55;;;33.53;;
40675;SDS011;26359;48.750;9.314;2022-12-18T09:18:54;78.55;;;32.95;;
40675;SDS011;26359;48.750;9.314;2022-12-18T09:21:24;73.85;;;32.50;;
40675;SDS011;26359;48.750;9.314;2022-12-18T09:23:51;73.63;;;34.15;;
40675;SDS011;26359;48.750;9.314;2022-12-18T09:26:18;75.00;;;33.70;;
40675;SDS011;26359;48.750;9.314;2022-12-18T09:28:44;81.68;;;37.58;;
40675;SDS011;26359;48.750;9.314;2022-12-18T09:31:10;69.53;;;34.50;;
40675;SDS011;26359;48.750;9.314;2022-12-18T09:33:37;72.75;;;36.45;;
40675;SDS011;26359;48.750;9.314;2022-12-18T09:36:03;72.32;;;35.00;;
40675;SDS011;26359;48.750;9.314;2022-12-18T09:38:31;73.72;;;33.92;;
40675;SDS011;26359;48.750;9.314;2022-12-18T09:40:59;73.47;;;33.47;;
40675;SDS011;26359;48.750;9.314;2022-12-18T09:43:31;70.47;;;34.33;;
40675;SDS011;26359;48.750;9.314;2022-12-18T09:46:10;72.00;;;33.90;;
40675;SDS011;26359;48.750;9.314;2022-12-18T09:48:42;67.75;;;35.13;;
40675;SDS011;26359;48.750;9.314;2022-12-18T09:51:14;73.25;;;34.67;;
40675;SDS011;26359;48.750;9.314;2022-12-18T09:53:45;69.05;;;34.03;;
40675;SDS011;26359;48.750;9.314;2022-12-18T09:56:17;68.88;;;34.13;;
40675;SDS011;26359;48.750;9.314;2022-12-18T10:01:26;70.57;;;34.30;;
40675;SDS011;26359;48.750;9.314;2022-12-18T10:03:53;71.32;;;34.20;;
40675;SDS011;26359;48.750;9.314;2022-12-18T10:17:36;67.20;;;33.20;;
40675;SDS011;26359;48.750;9.314;2022-12-18T10:22:53;69.40;;;36.10;;
40675;SDS011;26359;48.750;9.314;2022-12-18T10:25:25;67.90;;;33.47;;
40675;SDS011;26359;48.750;9.314;2022-12-18T10:28:12;64.03;;;34.53;;
40675;SDS011;26359;48.750;9.314;2022-12-18T10:30:40;70.25;;;35.15;;
40675;SDS011;26359;48.750;9.314;2022-12-18T10:33:10;69.22;;;36.03;;
40675;SDS011;26359;48.750;9.314;2022-12-18T10:35:40;72.18;;;37.92;;
40675;SDS011;26359;48.750;9.314;2022-12-18T10:40:55;69.85;;;34.83;;
40675;SDS011;26359;48.750;9.314;2022-12-18T10:43:24;68.38;;;36.08;;
40675;SDS011;26359;48.750;9.314;2022-12-18T10:46:07;68.88;;;35.25;;
40675;SDS011;26359;48.750;9.314;2022-12-18T10:51:33;73.30;;;38.90;;
40675;SDS011;26359;48.750;9.314;2022-12-18T10:54:12;71.22;;;39.15;;
40675;SDS011;26359;48.750;9.314;2022-12-18T10:56:42;78.45;;;41.60;;
40675;SDS011;26359;48.750;9.314;2022-12-18T10:59:12;71.55;;;39.55;;
40675;SDS011;26359;48.750;9.314;2022-12-18T11:01:57;63.55;;;36.20;;
40675;SDS011;26359;48.750;9.314;2022-12-18T11:06:54;66.78;;;36.60;;
40675;SDS011;26359;48.750;9.314;2022-12-18T11:09:28;68.93;;;38.67;;
40675;SDS011;26359;48.750;9.314;2022-12-18T11:11:57;68.03;;;38.40;;
40675;SDS011;26359;48.750;9.314;2022-12-18T11:14:26;73.30;;;39.22;;
40675;SDS011;26359;48.750;9.314;2022-12-18T11:17:16;71.35;;;39.97;;
40675;SDS011;26359;48.750;9.314;2022-12-18T11:19:44;69.22;;;39.03;;
40675;SDS011;26359;48.750;9.314;2022-12-18T11:22:19;73.45;;;40.60;;
40675;SDS011;26359;48.750;9.314;2022-12-18T11:27:22;70.05;;;40.92;;
40675;SDS011;26359;48.750;9.314;2022-12-18T11:29:48;73.30;;;39.22;;
40675;SDS011;26359;48.750;9.314;2022-12-18T11:32:21;71.80;;;39.85;;
40675;SDS011;26359;48.750;9.314;2022-12-18T11:35:12;67.75;;;40.47;;
40675;SDS011;26359;48.750;9.314;2022-12-18T11:37:43;74.78;;;44.95;;
40675;SDS011;26359;48.750;9.314;2022-12-18T11:40:16;81.43;;;46.75;;
40675;SDS011;26359;48.750;9.314;2022-12-18T11:42:48;69.50;;;39.65;;
40675;SDS011;26359;48.750;9.314;2022-12-18T11:45:26;74.82;;;41.30;;
40675;SDS011;26359;48.750;9.314;2022-12-18T11:50:53;78.45;;;45.80;;
40675;SDS011;26359;48.750;9.314;2022-12-18T11:53:24;75.10;;;44.03;;
40675;SDS011;26359;48.750;9.314;2022-12-18T12:06:38;77.20;;;48.08;;
40675;SDS011;26359;48.750;9.314;2022-12-18T12:15:01;72.97;;;42.10;;
40675;SDS011;26359;48.750;9.314;2022-12-18T12:39:48;71.25;;;41.60;;
40675;SDS011;26359;48.750;9.314;2022-12-18T12:42:16;70.13;;;42.50;;
40675;SDS011;26359;48.750;9.314;2022-12-18T12:45:11;72.25;;;38.47;;
40675;SDS011;26359;48.750;9.314;2022-12-18T12:47:46;71.63;;;39.50;;
40675;SDS011;26359;48.750;9.314;2022-12-18T12:50:16;76.50;;;41.10;;
40675;SDS011;26359;48.750;9.314;2022-12-18T12:52:47;74.75;;;38.55;;
40675;SDS011;26359;48.750;9.314;2022-12-18T12:55:19;69.70;;;38.50;;
40675;SDS011;26359;48.750;9.314;2022-12-18T13:00:40;76.60;;;39.30;;
40675;SDS011;26359;48.750;9.314;2022-12-18T13:06:12;71.75;;;41.15;;
40675;SDS011;26359;48.750;9.314;2022-12-18T13:11:38;71.32;;;40.13;;
40675;SDS011;26359;48.750;9.314;2022-12-18T13:14:28;73.20;;;39.10;;
40675;SDS011;26359;48.750;9.314;2022-12-18T13:19:41;72.65;;;38.15;;
40675;SDS011;26359;48.750;9.314;2022-12-18T13:22:21;74.43;;;40.53;;
40675;SDS011;26359;48.750;9.314;2022-12-18T13:24:49;73.78;;;40.10;;
40675;SDS011;26359;48.750;9.314;2022-12-18T13:41:00;77.65;;;40.88;;
40675;SDS011;26359;48.750;9.314;2022-12-18T13:43:28;76.30;;;40.15;;
40675;SDS011;26359;48.750;9.314;2022-12-18T13:49:02;79.35;;;37.55;;
40675;SDS011;26359;48.750;9.314;2022-12-18T13:51:31;72.20;;;39.25;;
40675;SDS011;26359;48.750;9.314;2022-12-18T13:54:00;81.47;;;41.47;;
40675;SDS011;26359;48.750;9.314;2022-12-18T14:01:41;81.65;;;37.55;;
40675;SDS011;26359;48.750;9.314;2022-12-18T14:04:11;85.22;;;41.65;;
40675;SDS011;26359;48.750;9.314;2022-12-18T14:06:46;86.78;;;41.85;;
40675;SDS011;26359;48.750;9.314;2022-12-18T14:09:57;96.18;;;40.90;;
40675;SDS011;26359;48.750;9.314;2022-12-18T14:12:05;82.97;;;39.53;;
40675;SDS011;26359;48.750;9.314;2022-12-18T14:14:55;86.70;;;39.83;;
40675;SDS011;26359;48.750;9.314;2022-12-18T14:17:20;83.68;;;39.63;;
40675;SDS011;26359;48.750;9.314;2022-12-18T14:19:48;81.68;;;40.40;;
40675;SDS011;26359;48.750;9.314;2022-12-18T14:22:17;76.72;;;37.28;;
40675;SDS011;26359;48.750;9.314;2022-12-18T14:24:45;76.95;;;38.13;;
40675;SDS011;26359;48.750;9.314;2022-12-18T14:27:22;73.60;;;36.85;;
40675;SDS011;26359;48.750;9.314;2022-12-18T14:29:49;73.45;;;37.90;;
40675;SDS011;26359;48.750;9.314;2022-12-18T14:32:16;77.70;;;36.72;;
40675;SDS011;26359;48.750;9.314;2022-12-18T14:34:53;73.32;;;36.40;;
40675;SDS011;26359;48.750;9.314;2022-12-18T14:37:21;77.35;;;39.13;;
40675;SDS011;26359;48.750;9.314;2022-12-18T14:39:54;77.57;;;38.83;;
40675;SDS011;26359;48.750;9.314;2022-12-18T14:42:25;76.82;;;36.67;;
40675;SDS011;26359;48.750;9.314;2022-12-18T14:45:39;71.18;;;36.97;;
40675;SDS011;26359;48.750;9.314;2022-12-18T14:47:58;71.07;;;35.90;;
40675;SDS011;26359;48.750;9.314;2022-12-18T14:50:24;72.78;;;37.20;;
40675;SDS011;26359;48.750;9.314;2022-12-18T14:52:51;68.00;;;35.88;;
40675;SDS011;26359;48.750;9.314;2022-12-18T14:55:17;76.10;;;37.25;;
40675;SDS011;26359;48.750;9.314;2022-12-18T14:57:44;74.47;;;39.45;;
40675;SDS011;26359;48.750;9.314;2022-12-18T15:00:17;79.82;;;41.92;;
40675;SDS011;26359;48.750;9.314;2022-12-18T15:02:48;75.82;;;39.40;;
40675;SDS011;26359;48.750;9.314;2022-12-18T15:05:25;76.80;;;38.22;;
40675;SDS011;26359;48.750;9.314;2022-12-18T15:07:56;83.93;;;39.80;;
40675;SDS011;26359;48.750;9.314;2022-12-18T15:10:30;76.05;;;38.53;;
40675;SDS011;26359;48.750;9.314;2022-12-18T15:20:33;74.50;;;36.65;;
40675;SDS011;26359;48.750;9.314;2022-12-18T15:23:13;72.35;;;36.95;;
40675;SDS011;26359;48.750;9.314;2022-12-18T15:25:42;72.65;;;36.40;;
40675;SDS011;26359;48.750;9.314;2022-12-18T15:31:01;78.97;;;39.10;;
40675;SDS011;26359;48.750;9.314;2022-12-18T15:33:36;90.72;;;42.47;;
40675;SDS011;26359;48.750;9.314;2022-12-18T15:36:25;91.25;;;45.40;;
40675;SDS011;26359;48.750;9.314;2022-12-18T15:38:52;85.82;;;42.10;;
40675;SDS011;26359;48.750;9.314;2022-12-18T15:41:20;86.50;;;44.33;;
40675;SDS011;26359;48.750;9.314;2022-12-18T15:43:51;84.55;;;42.95;;
40675;SDS011;26359;48.750;9.314;2022-12-18T15:46:18;79.43;;;40.80;;
40675;SDS011;26359;48.750;9.314;2022-12-18T15:48:46;83.93;;;40.83;;
40675;SDS011;26359;48.750;9.314;2022-12-18T15:53:43;80.32;;;38.70;;
40675;SDS011;26359;48.750;9.314;2022-12-18T15:56:13;83.18;;;39.17;;
40675;SDS011;26359;48.750;9.314;2022-12-18T15:58:59;77.90;;;37.20;;
40675;SDS011;26359;48.750;9.314;2022-12-18T16:01:25;80.45;;;39.95;;
40675;SDS011;26359;48.750;9.314;2022-12-18T16:03:53;70.30;;;36.13;;
40675;SDS011;26359;48.750;9.314;2022-12-18T16:06:19;81.22;;;38.08;;
40675;SDS011;26359;48.750;9.314;2022-12-18T16:08:45;77.22;;;37.42;;
40675;SDS011;26359;48.750;9.314;2022-12-18T16:11:20;81.68;;;40.40;;
40675;SDS011;26359;48.750;9.314;2022-12-18T16:14:11;85.10;;;39.28;;
40675;SDS011;26359;48.750;9.314;2022-12-18T16:16:48;77.22;;;38.00;;
40675;SDS011;26359;48.750;9.314;2022-12-18T16:19:21;77.20;;;39.72;;
40675;SDS011;26359;48.750;9.314;2022-12-18T16:21:47;78.25;;;39.65;;
40675;SDS011;26359;48.750;9.314;2022-12-18T16:24:15;86.63;;;41.03;;
40675;SDS011;26359;48.750;9.314;2022-12-18T16:26:44;82.80;;;40.28;;
40675;SDS011;26359;48.750;9.314;2022-12-18T16:29:10;79.22;;;38.45;;
40675;SDS011;26359;48.750;9.314;2022-12-18T16:31:36;78.93;;;38.92;;
40675;SDS011;26359;48.750;9.314;2022-12-18T16:34:19;76.80;;;38.05;;
40675;SDS011;26359;48.750;9.314;2022-12-18T16:36:48;78.95;;;38.25;;
40675;SDS011;26359;48.750;9.314;2022-12-18T16:39:15;79.28;;;39.33;;
40675;SDS011;26359;48.750;9.314;2022-12-18T16:41:41;75.90;;;40.03;;
40675;SDS011;26359;48.750;9.314;2022-12-18T16:44:06;77.95;;;38.65;;